Time;durP1;ratioP1;P1;durP2;ratioP2;P2;SDS_P1;SDS_P2;PMS_P1;PMS_P2;Temp;Humidity;BMP_temperature;BMP_pressure;BME280_temperature;BME280_humidity;BME280_pressure;Samples;Min_cycle;Max_cycle;Signal;HPM_P1;HPM_P2
2023/08/04 00:01:14;;;;;;;15.20;8.23;;;22.50;56.70;;;;;;4944547;28;20552;-70
2023/08/04 00:03:41;;;;;;;14.90;8.48;;;21.80;59.90;;;;;;4940974;28;20038;-69
2023/08/04 00:06:10;;;;;;;12.48;8.00;;;22.40;57.60;;;;;;4941377;28;20097;-70
2023/08/04 00:08:38;;;;;;;15.75;7.28;;;22.00;57.50;;;;;;4923605;28;20061;-69
2023/08/04 00:11:05;;;;;;;13.60;8.02;;;23.00;55.50;;;;;;4941136;28;20468;-69
2023/08/04 00:13:34;;;;;;;17.08;7.55;;;22.80;56.20;;;;;;4922414;28;20032;-70
2023/08/04 00:16:09;;;;;;;10.70;6.88;;;23.50;54.00;;;;;;4937506;28;20074;-70
2023/08/04 00:18:37;;;;;;;12.02;6.63;;;23.90;51.80;;;;;;4940189;28;20045;-69
2023/08/04 00:21:05;;;;;;;11.80;5.90;;;23.40;55.40;;;;;;4923436;28;20023;-69
2023/08/04 00:23:32;;;;;;;11.25;6.13;;;23.70;53.90;;;;;;4939139;28;20408;-68
2023/08/04 00:25:59;;;;;;;13.00;5.88;;;24.00;53.50;;;;;;4946154;28;20041;-69
2023/08/04 00:28:27;;;;;;;9.40;5.82;;;24.40;51.50;;;;;;4944407;28;20473;-69
2023/08/04 00:30:54;;;;;;;11.98;6.85;;;24.30;51.10;;;;;;4940222;28;20595;-69
2023/08/04 00:33:22;;;;;;;14.18;6.28;;;23.80;52.00;;;;;;4931548;28;20031;-69
2023/08/04 00:35:49;;;;;;;12.20;6.38;;;24.30;50.50;;;;;;4948388;28;20672;-69
2023/08/04 00:38:17;;;;;;;10.20;6.40;;;23.90;51.60;;;;;;4949817;28;20070;-69
2023/08/04 00:40:44;;;;;;;11.75;6.28;;;24.40;52.20;;;;;;4945684;28;20054;-69
2023/08/04 00:43:12;;;;;;;10.82;6.00;;;25.30;50.90;;;;;;4939155;28;20046;-69
2023/08/04 00:45:40;;;;;;;14.57;6.60;;;24.60;50.20;;;;;;4940954;28;20047;-71
2023/08/04 00:48:07;;;;;;;16.02;6.80;;;24.70;49.10;;;;;;4940406;28;20103;-70
2023/08/04 00:50:35;;;;;;;8.57;5.50;;;24.40;49.80;;;;;;4944472;28;20665;-71
2023/08/04 00:53:03;;;;;;;12.32;5.85;;;24.70;51.80;;;;;;4944943;28;20027;-71
2023/08/04 00:55:30;;;;;;;12.90;6.55;;;25.30;49.10;;;;;;4950503;28;20567;-71
2023/08/04 00:57:57;;;;;;;12.30;6.57;;;25.20;49.30;;;;;;4945278;28;20043;-70
2023/08/04 01:00:25;;;;;;;19.52;6.70;;;25.30;49.20;;;;;;4947204;28;21285;-70
2023/08/04 01:02:52;;;;;;;14.52;6.30;;;24.70;48.30;;;;;;4942903;28;20078;-69
2023/08/04 01:05:22;;;;;;;13.35;6.10;;;24.70;49.10;;;;;;4938325;28;20042;-71
2023/08/04 01:07:58;;;;;;;11.27;5.22;;;24.70;49.60;;;;;;4937785;28;20039;-70
2023/08/04 01:10:33;;;;;;;11.20;6.03;;;24.70;48.60;;;;;;4950345;28;20456;-71
2023/08/04 01:13:10;;;;;;;14.15;5.63;;;24.90;48.30;;;;;;4943810;28;20482;-71
2023/08/04 01:15:38;;;;;;;12.48;6.47;;;25.00;48.20;;;;;;4940812;28;20568;-71
2023/08/04 01:18:05;;;;;;;11.65;5.00;;;25.10;50.00;;;;;;4942988;28;20023;-70
2023/08/04 01:20:32;;;;;;;11.30;5.03;;;25.30;48.90;;;;;;4943758;28;20031;-70
2023/08/04 01:23:00;;;;;;;11.60;4.40;;;25.70;46.90;;;;;;4945368;28;20028;-70
2023/08/04 01:25:35;;;;;;;6.13;3.47;;;26.20;45.60;;;;;;4949905;28;20054;-69
2023/08/04 01:28:08;;;;;;;10.80;4.28;;;26.30;45.50;;;;;;4947943;28;20031;-70
2023/08/04 01:30:37;;;;;;;8.57;3.90;;;26.30;46.20;;;;;;4947758;28;20395;-70
2023/08/04 01:33:04;;;;;;;12.30;4.03;;;26.20;46.30;;;;;;4946335;28;20416;-69
2023/08/04 01:35:32;;;;;;;9.75;4.10;;;27.20;44.40;;;;;;4942373;28;20055;-69
2023/08/04 01:37:59;;;;;;;8.43;3.28;;;26.70;47.10;;;;;;4941704;28;20042;-69
2023/08/04 01:40:26;;;;;;;10.02;3.90;;;26.30;44.60;;;;;;4940899;28;20077;-69
2023/08/04 01:42:54;;;;;;;8.10;3.33;;;26.40;45.00;;;;;;4942104;28;20031;-69
2023/08/04 01:45:21;;;;;;;5.90;3.00;;;26.50;44.00;;;;;;4943058;28;20400;-69
2023/08/04 01:47:49;;;;;;;8.75;2.95;;;26.70;43.10;;;;;;4941571;28;20523;-69
2023/08/04 01:50:16;;;;;;;7.47;2.50;;;26.60;44.80;;;;;;4948076;28;20092;-69
2023/08/04 01:52:44;;;;;;;6.63;2.90;;;27.00;43.10;;;;;;4941659;28;20034;-69
2023/08/04 01:55:11;;;;;;;7.05;3.05;;;27.30;42.80;;;;;;4935842;28;20031;-69
2023/08/04 01:57:38;;;;;;;12.90;3.00;;;27.10;43.00;;;;;;4948261;28;20094;-70
2023/08/04 02:00:07;;;;;;;8.73;2.67;;;26.90;43.80;;;;;;4937886;28;20188;-69
2023/08/04 02:02:35;;;;;;;6.72;2.92;;;27.20;44.00;;;;;;4941419;28;20388;-70
2023/08/04 02:05:02;;;;;;;6.05;2.55;;;27.30;44.40;;;;;;4930419;28;20655;-70
2023/08/04 02:07:30;;;;;;;10.52;2.95;;;27.60;43.30;;;;;;4945806;28;20073;-70
2023/08/04 02:09:57;;;;;;;4.38;2.15;;;27.40;43.50;;;;;;4939141;28;20622;-69
2023/08/04 02:12:24;;;;;;;7.43;2.67;;;27.70;42.10;;;;;;4943408;28;20069;-68
2023/08/04 02:14:52;;;;;;;9.27;2.63;;;27.50;42.70;;;;;;4936973;28;20031;-69
2023/08/04 02:17:19;;;;;;;6.07;2.60;;;27.40;41.50;;;;;;4942917;28;20577;-68
2023/08/04 02:19:47;;;;;;;8.68;2.88;;;27.40;41.80;;;;;;4942347;28;20029;-69
2023/08/04 02:22:14;;;;;;;6.70;2.45;;;26.90;42.50;;;;;;4921048;28;20046;-68
2023/08/04 02:24:41;;;;;;;6.50;2.85;;;26.90;43.00;;;;;;4935556;28;20027;-70
2023/08/04 02:27:09;;;;;;;7.15;2.88;;;26.50;43.20;;;;;;4947286;28;20043;-68
2023/08/04 02:29:36;;;;;;;5.95;2.65;;;26.40;42.90;;;;;;4945597;28;20398;-67
2023/08/04 02:32:03;;;;;;;7.07;2.40;;;26.60;43.40;;;;;;4948980;28;20035;-68
2023/08/04 02:34:31;;;;;;;8.00;2.95;;;26.70;43.60;;;;;;4934697;28;20062;-68
2023/08/04 02:36:58;;;;;;;8.13;2.55;;;26.70;43.00;;;;;;4939680;28;20035;-67
2023/08/04 02:39:25;;;;;;;9.00;3.20;;;26.80;43.90;;;;;;4953959;28;20042;-68
2023/08/04 02:41:53;;;;;;;10.45;2.97;;;26.90;41.50;;;;;;4949661;28;20034;-68
2023/08/04 02:44:20;;;;;;;6.25;2.20;;;27.10;42.80;;;;;;4944729;28;20019;-68
2023/08/04 02:46:47;;;;;;;7.82;2.83;;;27.30;41.80;;;;;;4944552;28;20389;-68
2023/08/04 02:49:15;;;;;;;7.43;2.30;;;27.50;41.40;;;;;;4940976;28;20023;-69
2023/08/04 02:51:42;;;;;;;6.38;2.00;;;26.90;42.10;;;;;;4935971;28;20027;-68
2023/08/04 02:54:10;;;;;;;6.18;2.10;;;26.80;41.50;;;;;;4936178;28;20051;-69
2023/08/04 02:56:38;;;;;;;5.18;2.17;;;26.40;41.50;;;;;;4940620;28;20027;-69
2023/08/04 02:59:05;;;;;;;7.88;2.20;;;26.70;41.80;;;;;;4939416;28;20031;-68
2023/08/04 03:01:33;;;;;;;7.00;2.35;;;26.90;41.20;;;;;;4938344;28;20382;-69
2023/08/04 03:04:00;;;;;;;3.10;1.83;;;27.00;41.20;;;;;;4941109;28;20045;-68
2023/08/04 03:06:27;;;;;;;10.20;2.20;;;26.80;40.40;;;;;;4937248;28;20039;-69
2023/08/04 03:08:55;;;;;;;12.25;2.58;;;26.80;42.00;;;;;;4934249;28;20019;-69
2023/08/04 03:11:22;;;;;;;7.90;2.00;;;27.20;41.00;;;;;;4936215;28;20121;-69
2023/08/04 03:13:49;;;;;;;7.72;2.28;;;27.50;41.00;;;;;;4937299;28;20069;-69
2023/08/04 03:16:17;;;;;;;6.45;1.80;;;27.40;40.20;;;;;;4946731;28;20050;-68
2023/08/04 03:18:44;;;;;;;5.70;2.45;;;26.70;41.20;;;;;;4946377;28;20163;-69
2023/08/04 03:21:12;;;;;;;4.95;2.05;;;26.50;40.90;;;;;;4944639;28;20045;-69
2023/08/04 03:23:39;;;;;;;6.80;1.88;;;26.30;41.20;;;;;;4941266;28;20034;-69
2023/08/04 03:26:06;;;;;;;6.13;1.90;;;25.90;40.70;;;;;;4946174;28;20039;-69
2023/08/04 03:28:34;;;;;;;6.93;2.00;;;26.20;43.30;;;;;;4943776;28;20413;-69
2023/08/04 03:31:02;;;;;;;5.00;1.75;;;26.40;41.20;;;;;;4944115;28;20526;-68
2023/08/04 03:33:29;;;;;;;9.25;2.28;;;26.50;40.60;;;;;;4944429;28;20019;-69
2023/08/04 03:35:57;;;;;;;3.80;2.00;;;26.30;39.70;;;;;;4947563;28;20032;-68
2023/08/04 03:38:25;;;;;;;4.95;2.00;;;26.40;41.10;;;;;;4951683;28;20421;-68
2023/08/04 03:40:52;;;;;;;6.55;2.03;;;26.40;40.40;;;;;;4952947;28;20074;-68
2023/08/04 03:43:19;;;;;;;3.78;1.73;;;26.30;40.30;;;;;;4938001;28;20094;-68
2023/08/04 03:45:47;;;;;;;6.10;2.00;;;25.90;39.80;;;;;;4949207;28;20477;-68
2023/08/04 03:48:14;;;;;;;8.90;1.90;;;25.70;41.20;;;;;;4941315;28;20023;-69
2023/08/04 03:50:41;;;;;;;5.13;1.80;;;25.90;41.20;;;;;;4936412;28;20035;-68
2023/08/04 03:53:09;;;;;;;4.03;2.03;;;25.80;40.70;;;;;;4937104;28;20634;-70
2023/08/04 03:55:36;;;;;;;4.22;1.40;;;25.60;40.90;;;;;;4942755;28;20118;-69
2023/08/04 03:58:03;;;;;;;9.98;2.08;;;25.30;40.80;;;;;;4928378;28;20062;-69
2023/08/04 04:00:31;;;;;;;4.13;1.50;;;24.90;40.90;;;;;;4943451;28;20035;-68
2023/08/04 04:02:58;;;;;;;5.22;2.10;;;24.80;41.40;;;;;;4942163;28;20023;-71
2023/08/04 04:05:25;;;;;;;5.82;1.80;;;24.80;41.90;;;;;;4941947;28;20035;-69
2023/08/04 04:07:53;;;;;;;5.05;2.03;;;24.80;41.20;;;;;;4937465;28;20124;-70
2023/08/04 04:10:20;;;;;;;6.05;2.08;;;24.90;40.90;;;;;;4959544;28;20061;-68
2023/08/04 04:12:48;;;;;;;6.10;1.88;;;24.70;42.10;;;;;;4940498;28;20031;-68
2023/08/04 04:15:15;;;;;;;4.50;1.83;;;24.70;41.90;;;;;;4938680;28;20027;-70
2023/08/04 04:17:42;;;;;;;3.80;1.77;;;24.60;42.40;;;;;;4934988;28;20039;-69
2023/08/04 04:20:10;;;;;;;9.15;1.92;;;24.50;42.20;;;;;;4948781;28;20376;-69
2023/08/04 04:22:37;;;;;;;4.10;1.80;;;24.30;42.50;;;;;;4948322;28;20062;-67
2023/08/04 04:25:05;;;;;;;6.20;1.67;;;24.10;42.90;;;;;;4943098;28;20029;-69
2023/08/04 04:27:32;;;;;;;5.65;2.08;;;24.10;43.60;;;;;;4948500;28;20370;-70
2023/08/04 04:29:59;;;;;;;4.35;2.03;;;24.20;43.60;;;;;;4949336;28;20035;-68
2023/08/04 04:32:27;;;;;;;4.25;1.90;;;24.00;44.00;;;;;;4940620;28;20031;-69
2023/08/04 04:34:54;;;;;;;4.57;1.70;;;23.80;44.70;;;;;;4938870;28;20093;-68
2023/08/04 04:37:21;;;;;;;5.13;1.88;;;23.70;44.40;;;;;;4950056;28;20477;-69
2023/08/04 04:39:49;;;;;;;35.60;3.30;;;23.60;45.00;;;;;;4949872;28;20052;-70
2023/08/04 04:42:16;;;;;;;18.90;2.45;;;23.80;45.20;;;;;;4948450;28;20031;-68
2023/08/04 04:44:44;;;;;;;8.02;1.80;;;23.90;45.30;;;;;;4945244;28;20110;-68
2023/08/04 04:47:12;;;;;;;7.10;1.58;;;23.70;45.00;;;;;;4959655;28;20049;-69
2023/08/04 04:49:39;;;;;;;5.15;1.90;;;23.80;45.00;;;;;;4951843;28;20474;-69
2023/08/04 04:52:07;;;;;;;5.93;1.77;;;23.70;45.20;;;;;;4939008;28;20040;-69
2023/08/04 04:54:34;;;;;;;6.25;1.95;;;23.60;45.50;;;;;;4949800;28;20807;-68
2023/08/04 04:57:01;;;;;;;7.50;1.80;;;23.70;45.10;;;;;;4968193;28;20054;-70
2023/08/04 04:59:29;;;;;;;6.55;1.75;;;23.60;46.00;;;;;;4958856;28;20039;-69
2023/08/04 05:01:56;;;;;;;9.18;1.80;;;23.50;45.60;;;;;;4948075;28;20035;-69
2023/08/04 05:04:24;;;;;;;6.70;2.42;;;23.60;45.60;;;;;;4948173;28;20102;-69
2023/08/04 05:06:51;;;;;;;2.13;1.38;;;23.60;46.40;;;;;;4937713;28;20043;-69
2023/08/04 05:09:19;;;;;;;4.53;1.80;;;23.70;45.60;;;;;;4947099;28;20031;-70
2023/08/04 05:11:46;;;;;;;4.80;1.60;;;23.60;45.70;;;;;;4932713;28;20124;-70
2023/08/04 05:14:13;;;;;;;6.15;1.98;;;23.50;45.70;;;;;;4940201;28;20035;-69
2023/08/04 05:16:42;;;;;;;25.00;3.20;;;23.50;46.20;;;;;;4943588;28;20031;-69
2023/08/04 05:19:09;;;;;;;38.08;5.00;;;23.50;45.70;;;;;;4941856;28;20039;-69
2023/08/04 05:21:36;;;;;;;4.85;1.95;;;23.50;45.70;;;;;;4946982;28;20437;-69
2023/08/04 05:24:04;;;;;;;7.28;1.67;;;23.50;45.50;;;;;;4937022;28;20030;-71
2023/08/04 05:26:31;;;;;;;6.72;1.73;;;23.40;45.20;;;;;;4949223;28;21379;-69
2023/08/04 05:28:59;;;;;;;10.40;2.38;;;23.50;45.10;;;;;;4946809;28;20038;-69
2023/08/04 05:31:26;;;;;;;8.85;2.92;;;23.50;45.10;;;;;;4951597;28;20023;-70
2023/08/04 05:33:56;;;;;;;7.65;2.00;;;23.50;45.00;;;;;;4945493;28;20496;-69
2023/08/04 05:36:26;;;;;;;6.63;1.75;;;23.40;45.10;;;;;;4943821;28;20031;-69
2023/08/04 05:38:53;;;;;;;6.63;1.70;;;23.50;44.90;;;;;;4947714;28;20062;-69
2023/08/04 05:41:20;;;;;;;4.63;1.77;;;23.50;44.70;;;;;;4953135;28;20062;-69
2023/08/04 05:43:48;;;;;;;6.93;1.83;;;23.50;44.20;;;;;;4944397;28;20069;-69
2023/08/04 05:46:15;;;;;;;6.07;1.98;;;23.50;43.70;;;;;;4930276;28;20391;-69
2023/08/04 05:48:43;;;;;;;3.95;1.80;;;23.50;43.70;;;;;;4945479;28;20031;-69
2023/08/04 05:51:10;;;;;;;6.13;1.63;;;23.60;43.80;;;;;;4945951;28;20028;-68
2023/08/04 05:53:38;;;;;;;11.15;2.50;;;23.60;43.20;;;;;;4945559;28;20035;-68
2023/08/04 05:56:05;;;;;;;5.85;1.70;;;23.50;43.90;;;;;;4940922;28;20031;-70
2023/08/04 05:58:32;;;;;;;9.38;2.33;;;23.60;43.20;;;;;;4949236;28;20403;-69
2023/08/04 06:01:00;;;;;;;5.82;1.67;;;23.60;43.90;;;;;;4949319;28;20377;-68
2023/08/04 06:03:27;;;;;;;4.25;1.63;;;23.80;43.80;;;;;;4949731;28;20379;-69
2023/08/04 06:05:54;;;;;;;8.40;2.10;;;23.80;43.20;;;;;;4944233;28;20039;-69
2023/08/04 06:08:22;;;;;;;6.35;1.58;;;23.90;43.40;;;;;;4951495;28;20110;-70
2023/08/04 06:10:49;;;;;;;5.65;1.52;;;23.90;42.40;;;;;;4943048;28;20027;-69
2023/08/04 06:13:17;;;;;;;5.07;1.75;;;23.80;42.60;;;;;;4946538;28;20031;-69
2023/08/04 06:15:44;;;;;;;4.20;1.70;;;23.80;42.20;;;;;;4945214;28;20380;-70
2023/08/04 06:18:11;;;;;;;4.07;1.50;;;23.80;41.80;;;;;;4946782;28;20113;-70
2023/08/04 06:20:39;;;;;;;4.35;1.80;;;23.90;42.30;;;;;;4945648;28;20027;-70
2023/08/04 06:23:06;;;;;;;5.65;1.60;;;23.90;41.70;;;;;;4945390;28;20028;-70
2023/08/04 06:25:34;;;;;;;6.07;2.55;;;23.90;41.90;;;;;;4951113;28;20388;-70
2023/08/04 06:28:01;;;;;;;3.83;1.50;;;23.90;42.40;;;;;;4948515;28;20031;-70
2023/08/04 06:30:29;;;;;;;3.78;1.67;;;23.90;42.30;;;;;;4943028;28;20122;-70
2023/08/04 06:32:56;;;;;;;5.25;1.65;;;23.80;42.40;;;;;;4950654;28;20038;-70
2023/08/04 06:35:23;;;;;;;4.60;1.70;;;23.80;42.40;;;;;;4952794;28;20039;-69
2023/08/04 06:37:51;;;;;;;5.82;1.90;;;23.80;42.60;;;;;;4946912;28;20063;-70
2023/08/04 06:40:18;;;;;;;4.22;1.58;;;23.70;42.40;;;;;;4933876;28;20027;-70
2023/08/04 06:42:46;;;;;;;3.13;1.70;;;23.50;42.30;;;;;;4944499;28;20033;-70
2023/08/04 06:45:14;;;;;;;13.63;4.72;;;23.40;43.00;;;;;;4948099;28;20035;-69
2023/08/04 06:47:42;;;;;;;5.05;2.17;;;23.30;44.10;;;;;;4931925;28;20027;-70
2023/08/04 06:50:10;;;;;;;6.30;2.20;;;23.10;43.30;;;;;;4951144;28;20039;-69
2023/08/04 06:52:37;;;;;;;8.23;1.90;;;23.00;43.50;;;;;;4936882;28;20035;-69
2023/08/04 06:55:05;;;;;;;7.13;1.98;;;22.80;43.90;;;;;;4943231;28;20081;-70
2023/08/04 06:57:32;;;;;;;4.22;1.70;;;22.50;44.40;;;;;;4947712;28;20122;-69
2023/08/04 07:00:00;;;;;;;3.60;1.70;;;22.40;44.50;;;;;;4949314;28;20027;-69
2023/08/04 07:02:27;;;;;;;4.45;1.40;;;22.30;44.80;;;;;;4945303;28;20045;-70
2023/08/04 07:04:55;;;;;;;5.90;1.48;;;22.20;44.90;;;;;;4939289;28;20042;-69
2023/08/04 07:07:22;;;;;;;4.72;1.48;;;22.00;45.40;;;;;;4946511;28;20042;-69
2023/08/04 07:09:49;;;;;;;6.10;1.80;;;21.80;45.50;;;;;;4948253;28;20125;-69
2023/08/04 07:12:17;;;;;;;5.00;2.10;;;21.70;46.40;;;;;;4947979;28;20035;-70
2023/08/04 07:14:44;;;;;;;5.28;1.88;;;21.60;46.30;;;;;;4946825;28;20033;-70
2023/08/04 07:17:12;;;;;;;6.63;2.10;;;21.50;46.70;;;;;;4944338;28;20023;-70
2023/08/04 07:19:39;;;;;;;4.15;1.70;;;21.40;46.70;;;;;;4932704;28;20111;-69
2023/08/04 07:22:06;;;;;;;11.43;2.53;;;21.20;47.20;;;;;;4947787;28;20023;-69
2023/08/04 07:24:34;;;;;;;7.95;2.17;;;21.10;47.10;;;;;;4950684;28;20047;-69
2023/08/04 07:27:01;;;;;;;7.50;2.35;;;20.90;47.20;;;;;;4945728;28;20054;-69
2023/08/04 07:29:33;;;;;;;4.30;2.00;;;20.80;48.10;;;;;;4948323;28;20114;-68
2023/08/04 07:32:00;;;;;;;6.80;1.92;;;20.60;48.50;;;;;;4917603;28;20035;-69
2023/08/04 07:34:28;;;;;;;8.07;2.10;;;20.50;48.50;;;;;;4953120;28;20140;-69
2023/08/04 07:36:55;;;;;;;6.28;2.22;;;20.40;49.20;;;;;;4954151;28;20503;-68
2023/08/04 07:39:22;;;;;;;7.00;1.95;;;20.30;49.70;;;;;;4948332;28;20047;-69
2023/08/04 07:41:50;;;;;;;8.43;2.60;;;20.20;50.00;;;;;;4953894;28;20027;-70
2023/08/04 07:44:17;;;;;;;6.45;2.58;;;20.10;49.60;;;;;;4947160;28;20035;-68
2023/08/04 07:46:44;;;;;;;4.88;2.63;;;19.90;50.80;;;;;;4951792;28;20077;-69
2023/08/04 07:49:12;;;;;;;6.75;2.90;;;19.80;51.30;;;;;;4947840;28;20023;-69
2023/08/04 07:51:39;;;;;;;5.10;2.65;;;19.70;51.80;;;;;;4950347;28;20075;-71
2023/08/04 07:54:07;;;;;;;11.38;2.92;;;19.60;52.30;;;;;;4942086;28;20039;-69
2023/08/04 07:56:34;;;;;;;7.72;3.13;;;19.50;51.90;;;;;;4953291;28;20050;-71
2023/08/04 07:59:02;;;;;;;11.57;4.68;;;19.40;53.30;;;;;;4970251;28;20142;-69
2023/08/04 08:01:30;;;;;;;13.98;5.65;;;19.30;53.30;;;;;;4956920;28;20035;-69
2023/08/04 08:03:57;;;;;;;9.93;4.90;;;19.30;53.40;;;;;;4951764;28;20031;-69
2023/08/04 08:06:24;;;;;;;10.52;4.32;;;19.20;52.60;;;;;;4952857;28;20082;-69
2023/08/04 08:08:51;;;;;;;14.13;4.22;;;19.10;52.50;;;;;;4948895;28;20019;-68
2023/08/04 08:11:19;;;;;;;9.20;3.90;;;19.20;52.60;;;;;;4952274;28;20054;-69
2023/08/04 08:13:46;;;;;;;9.35;4.22;;;19.20;53.10;;;;;;4949435;28;20023;-69
2023/08/04 08:16:17;;;;;;;10.82;4.88;;;19.10;54.20;;;;;;4947517;28;20016;-69
2023/08/04 08:18:44;;;;;;;9.15;4.93;;;18.90;53.80;;;;;;4949734;28;20023;-69
2023/08/04 08:21:13;;;;;;;14.77;5.80;;;18.80;54.40;;;;;;4953278;28;20027;-69
2023/08/04 08:23:40;;;;;;;8.30;4.90;;;18.80;53.90;;;;;;4944261;28;20489;-69
2023/08/04 08:26:08;;;;;;;11.30;4.60;;;18.70;56.10;;;;;;4951789;28;20054;-69
2023/08/04 08:28:35;;;;;;;8.90;4.35;;;18.70;57.10;;;;;;4944405;28;20031;-68
2023/08/04 08:31:02;;;;;;;9.02;3.75;;;18.60;55.90;;;;;;4949888;28;20034;-71
2023/08/04 08:33:30;;;;;;;5.68;3.58;;;18.50;56.30;;;;;;4953211;28;20114;-70
2023/08/04 08:35:58;;;;;;;13.32;4.30;;;18.50;56.60;;;;;;4958106;28;20027;-68
2023/08/04 08:38:25;;;;;;;11.02;4.00;;;18.50;56.00;;;;;;4952853;28;20019;-69
2023/08/04 08:40:53;;;;;;;10.00;4.20;;;18.40;57.10;;;;;;4951843;28;20545;-69
2023/08/04 08:43:20;;;;;;;12.52;3.58;;;18.40;58.20;;;;;;4972131;28;20499;-68
2023/08/04 08:45:50;;;;;;;8.07;3.13;;;18.20;57.90;;;;;;4952405;28;20039;-67
2023/08/04 08:48:19;;;;;;;9.00;3.20;;;18.10;58.60;;;;;;4953647;28;20062;-68
2023/08/04 08:50:51;;;;;;;9.63;3.90;;;18.10;57.30;;;;;;4954724;28;20500;-69
2023/08/04 08:53:24;;;;;;;10.35;3.83;;;18.10;58.60;;;;;;4944713;28;20035;-68
2023/08/04 08:55:51;;;;;;;9.30;3.55;;;18.00;58.20;;;;;;4953000;28;20027;-69
2023/08/04 08:58:20;;;;;;;6.30;3.30;;;18.00;59.40;;;;;;4954001;28;20051;-70
2023/08/04 09:00:48;;;;;;;13.10;4.35;;;18.10;59.50;;;;;;4951474;28;20039;-69
2023/08/04 09:03:16;;;;;;;14.30;4.60;;;18.10;57.80;;;;;;4950366;28;20503;-68
2023/08/04 09:05:43;;;;;;;7.90;4.40;;;18.20;58.30;;;;;;4953652;28;20122;-68
2023/08/04 09:08:10;;;;;;;13.45;5.25;;;18.10;58.00;;;;;;4947079;28;20083;-68
2023/08/04 09:10:38;;;;;;;8.52;4.15;;;18.00;57.80;;;;;;4954882;28;20093;-69
2023/08/04 09:13:09;;;;;;;11.25;5.35;;;18.00;59.00;;;;;;4951408;28;20493;-69
2023/08/04 09:15:47;;;;;;;14.25;4.80;;;18.00;58.20;;;;;;4955568;28;20477;-69
2023/08/04 09:18:36;;;;;;;13.60;5.93;;;17.80;59.00;;;;;;4949156;28;20042;-69
2023/08/04 09:21:23;;;;;;;16.75;6.53;;;18.10;59.60;;;;;;4953949;28;20035;-69
2023/08/04 09:23:54;;;;;;;11.63;5.20;;;18.00;59.50;;;;;;4949696;28;20027;-71
2023/08/04 09:26:21;;;;;;;14.15;4.88;;;17.90;59.40;;;;;;4954483;28;20053;-69
2023/08/04 09:29:07;;;;;;;10.90;4.60;;;17.80;59.30;;;;;;4950956;28;20479;-69
2023/08/04 09:31:39;;;;;;;12.80;4.97;;;17.70;59.90;;;;;;4955552;28;20546;-69
2023/08/04 09:34:09;;;;;;;12.25;4.60;;;17.60;60.60;;;;;;4950693;28;20259;-70
2023/08/04 09:36:47;;;;;;;9.80;4.07;;;17.50;60.90;;;;;;4945343;28;20042;-70
2023/08/04 09:39:14;;;;;;;9.38;4.75;;;17.40;61.30;;;;;;4953481;28;20034;-70
2023/08/04 09:41:46;;;;;;;10.75;4.43;;;17.30;61.90;;;;;;4941510;28;20039;-70
2023/08/04 09:44:14;;;;;;;9.57;4.85;;;17.10;62.70;;;;;;4940604;28;20070;-69
2023/08/04 09:46:53;;;;;;;10.00;5.13;;;17.00;63.10;;;;;;4956713;28;20047;-71
2023/08/04 09:49:21;;;;;;;9.73;4.85;;;17.20;64.30;;;;;;4941839;28;20085;-70
2023/08/04 09:51:51;;;;;;;14.07;4.80;;;17.10;63.50;;;;;;4947601;28;20027;-69
2023/08/04 09:54:19;;;;;;;11.95;5.53;;;16.70;64.20;;;;;;4945593;28;20430;-69
2023/08/04 09:56:51;;;;;;;14.82;6.45;;;16.50;65.10;;;;;;4946536;28;20027;-70
2023/08/04 09:59:19;;;;;;;12.98;6.07;;;16.30;66.00;;;;;;4943789;28;20023;-70
2023/08/04 10:01:47;;;;;;;17.05;6.43;;;16.30;66.00;;;;;;4929671;28;20031;-69
2023/08/04 10:04:15;;;;;;;18.88;6.47;;;16.10;66.60;;;;;;4932243;28;20050;-71
2023/08/04 10:06:47;;;;;;;18.63;5.75;;;15.90;67.20;;;;;;4946710;28;20086;-68
2023/08/04 10:09:15;;;;;;;13.38;5.28;;;15.80;67.30;;;;;;4943255;28;20065;-68
2023/08/04 10:11:42;;;;;;;13.38;5.40;;;15.70;68.60;;;;;;4943700;28;20027;-70
2023/08/04 10:14:10;;;;;;;17.02;5.32;;;15.70;69.10;;;;;;4944048;28;20053;-70
2023/08/04 10:16:38;;;;;;;16.77;5.07;;;15.80;68.20;;;;;;4944527;28;20496;-69
2023/08/04 10:19:09;;;;;;;12.10;4.68;;;15.60;69.30;;;;;;4938203;28;20032;-70
2023/08/04 10:21:41;;;;;;;15.05;5.30;;;15.60;69.60;;;;;;4951518;28;20035;-69
2023/08/04 10:24:11;;;;;;;18.10;5.78;;;15.50;69.10;;;;;;4943926;28;20023;-69
2023/08/04 10:26:48;;;;;;;11.00;5.10;;;15.40;70.00;;;;;;4949417;28;20506;-69
2023/08/04 10:29:17;;;;;;;19.92;5.45;;;15.30;71.00;;;;;;4939591;28;20096;-70
2023/08/04 10:31:51;;;;;;;12.65;5.38;;;15.20;70.70;;;;;;4942218;28;20027;-68
2023/08/04 10:34:23;;;;;;;12.73;5.75;;;15.00;70.60;;;;;;4948038;28;20031;-69
2023/08/04 10:37:13;;;;;;;21.65;6.45;;;15.00;71.30;;;;;;4967578;28;20448;-67
2023/08/04 10:39:56;;;;;;;18.15;6.07;;;15.30;70.80;;;;;;4947675;28;20032;-68
2023/08/04 10:42:31;;;;;;;16.70;5.80;;;15.30;70.70;;;;;;4946537;28;20031;-68
2023/08/04 10:45:09;;;;;;;21.70;6.15;;;15.10;71.50;;;;;;4946863;28;20066;-68
2023/08/04 10:47:44;;;;;;;13.45;5.82;;;14.90;71.90;;;;;;4950273;28;20051;-68
2023/08/04 10:50:13;;;;;;;20.52;6.50;;;14.90;72.30;;;;;;4966077;28;20461;-67
2023/08/04 10:52:42;;;;;;;19.50;7.15;;;14.80;72.70;;;;;;4954051;28;20110;-69
2023/08/04 10:55:12;;;;;;;16.67;7.45;;;14.70;73.10;;;;;;4952248;28;20118;-68
2023/08/04 10:57:42;;;;;;;17.23;6.35;;;14.70;73.60;;;;;;4948553;28;20055;-68
2023/08/04 11:00:12;;;;;;;12.65;6.35;;;14.60;73.70;;;;;;4967171;28;20051;-68
2023/08/04 11:02:40;;;;;;;13.45;6.63;;;14.60;74.50;;;;;;4948044;28;20026;-69
2023/08/04 11:05:11;;;;;;;18.52;7.53;;;14.60;74.40;;;;;;4948574;28;20420;-68
2023/08/04 11:07:44;;;;;;;16.90;6.68;;;14.50;74.30;;;;;;4950780;28;20027;-69
2023/08/04 11:10:12;;;;;;;16.40;6.00;;;14.50;74.30;;;;;;4949983;28;20486;-69
2023/08/04 11:12:39;;;;;;;17.27;5.80;;;14.50;74.60;;;;;;4943102;28;20030;-68
2023/08/04 11:15:11;;;;;;;15.98;6.03;;;14.40;74.40;;;;;;4941326;28;20027;-68
2023/08/04 11:17:42;;;;;;;8.80;5.18;;;14.40;75.00;;;;;;4945243;28;20041;-68
2023/08/04 11:20:14;;;;;;;13.73;5.63;;;14.30;75.40;;;;;;4945029;28;20139;-69
2023/08/04 11:22:46;;;;;;;16.45;5.70;;;14.30;76.20;;;;;;4948377;28;20033;-68
2023/08/04 11:25:14;;;;;;;15.73;5.95;;;14.30;75.80;;;;;;4948590;28;20512;-69
2023/08/04 11:27:42;;;;;;;15.05;5.28;;;14.20;76.20;;;;;;4949022;28;20486;-68
2023/08/04 11:30:12;;;;;;;16.77;5.72;;;14.00;76.70;;;;;;4951830;28;20531;-68
2023/08/04 11:32:39;;;;;;;9.38;4.70;;;13.90;77.30;;;;;;4950443;28;20118;-69
2023/08/04 11:35:07;;;;;;;11.77;5.07;;;13.80;77.40;;;;;;4947431;28;20027;-69
2023/08/04 11:37:35;;;;;;;11.70;4.97;;;13.80;77.30;;;;;;4944050;28;20031;-68
2023/08/04 11:40:02;;;;;;;15.55;5.80;;;13.70;77.50;;;;;;4948689;28;20027;-69
2023/08/04 11:42:30;;;;;;;15.52;5.60;;;13.80;77.70;;;;;;4948434;28;20050;-69
2023/08/04 11:44:57;;;;;;;11.68;5.75;;;13.80;78.50;;;;;;4944393;28;20030;-68
2023/08/04 11:47:25;;;;;;;13.15;5.70;;;13.80;77.50;;;;;;4949314;28;20047;-68
2023/08/04 11:49:54;;;;;;;11.07;5.30;;;13.80;77.20;;;;;;4958243;28;20385;-69
2023/08/04 11:52:21;;;;;;;12.98;5.03;;;13.80;77.90;;;;;;4944704;28;20039;-69
2023/08/04 11:55:00;;;;;;;11.02;5.20;;;13.70;77.70;;;;;;4948153;28;20090;-69
2023/08/04 11:57:27;;;;;;;11.88;5.57;;;13.60;78.80;;;;;;4950108;28;20058;-69
2023/08/04 11:59:55;;;;;;;11.68;5.30;;;13.60;79.50;;;;;;4944793;28;20507;-69
2023/08/04 12:02:22;;;;;;;13.23;6.60;;;13.50;79.50;;;;;;4946703;28;20030;-68
2023/08/04 12:05:06;;;;;;;14.20;6.20;;;13.40;80.10;;;;;;4940713;28;20027;-68
2023/08/04 12:07:34;;;;;;;12.00;6.07;;;13.40;80.50;;;;;;4947498;28;20066;-69
2023/08/04 12:10:01;;;;;;;12.48;5.22;;;13.30;80.80;;;;;;4948265;28;20027;-68
2023/08/04 12:12:39;;;;;;;16.02;5.47;;;13.20;81.20;;;;;;4952188;28;20587;-69
2023/08/04 12:15:07;;;;;;;9.07;4.95;;;13.10;80.90;;;;;;4936351;28;20086;-69
2023/08/04 12:17:44;;;;;;;12.70;5.47;;;13.10;81.10;;;;;;4948605;28;20782;-71
2023/08/04 12:20:13;;;;;;;12.80;5.78;;;13.00;81.80;;;;;;4950371;28;20468;-69
2023/08/04 12:22:43;;;;;;;12.35;6.43;;;12.90;82.00;;;;;;4957761;28;20038;-69
2023/08/04 12:25:11;;;;;;;14.45;5.60;;;12.90;82.40;;;;;;4948327;28;20031;-69
2023/08/04 12:27:40;;;;;;;13.27;5.63;;;12.80;82.40;;;;;;4941081;28;20039;-69
2023/08/04 12:30:08;;;;;;;9.35;5.22;;;12.80;83.00;;;;;;4944393;28;20027;-69
2023/08/04 12:32:36;;;;;;;10.38;5.75;;;12.90;82.70;;;;;;4952698;28;20066;-69
2023/08/04 12:35:04;;;;;;;15.45;6.35;;;13.10;82.40;;;;;;4954065;28;20182;-70
2023/08/04 12:37:31;;;;;;;9.60;5.05;;;13.10;82.40;;;;;;4950695;28;20030;-69
2023/08/04 12:39:58;;;;;;;15.20;6.55;;;13.10;81.90;;;;;;4951801;28;20027;-68
2023/08/04 12:42:26;;;;;;;12.57;6.70;;;13.10;81.80;;;;;;4947740;28;20066;-68
2023/08/04 12:44:53;;;;;;;16.45;7.43;;;13.00;82.30;;;;;;4948387;28;20381;-68
2023/08/04 12:47:20;;;;;;;16.23;7.28;;;12.90;82.90;;;;;;4953943;28;20133;-69
2023/08/04 12:49:48;;;;;;;21.67;7.03;;;12.80;83.90;;;;;;4953153;28;20475;-69